Country
Station

 

Weather  for  Catania/Sigonella  -  Italy    Italy

  
27 °C (81 °F)
    
 
 

Current METAR for Catania/Sigonella is :

LICZ 191655Z 09011KT 9999 FEW025 27/20 Q1016 RMK SCT VIS MIN 9999 WIND THR28 08010KT WIND THR10 08010KT A3000 BLU

 

This is a report for Catania/Sigonella - Italy.
 
The report was made 25 minutes ago, at 16:55 UTC .
The wind was blowing at a speed of 5.7 meters per second (12.7 miles per hour) from east (090°).
 
The temperature was 27 °C (81 °F), with a dew-point at 20 °C (68 °F).
The temperature felt like 29 °C (84 °F).
 
The atmospheric pressure was 1016 hPa (30.00 inHg).
The relative humidity was 65.6%.
 
There were a few clouds at a height of 762 meters (2500 feet).
 
The overall visibility was greater than 10 kilometers (6.2 miles).
 

 
 
 
 

Country :   A   B   C   D   E   F   G   H   I   J   K   L   M   N   O   P   Q   R   S   T   U   V   W   Y   Z

 

Site Info  |  Disclaimer  |  Credits  |  Privacy
Contact us  |  Add to favorites
© 2013-2019 METARs - All rights reserved